Albert Lea, Minnesota
Current Conditions -  °F | °C
As of 10:31 PM on Thursday 18 Dec 2014 (Local Time) from KAEL Reporting Station
Overcast Overcast  
Wind Chill: -5°   Ceiling: 7000
Heat Index: -5°   Visibility: 7mi
Dew Point: -7°   Wind: 0mph
Humidity: 86%   Direction: NA
Pressure: 30.24"   Gusts: NA
Location:  43.65°N, 93.37°W
Report Text: KAEL 190431Z AUTO 00000KT 7SM OVC070 M05/M07 A3024 RMK AO2
Loading
Personal Weather Stations






























Interactive Weather Map New forecast layout! Learn more

10-Day Weather Forecast

Advertisements
Track Severe Weather on mobile